sensor_id;sensor_type;location;lat;lon;timestamp;pressure;altitude;pressure_sealevel;temperature;humidity
6938;BME280;40040;42.706;23.372;2024-01-15T00:02:20;143237.94;;;-3.93;100.00
6938;BME280;40040;42.706;23.372;2024-01-15T00:04:47;143263.53;;;-3.83;100.00
6938;BME280;40040;42.706;23.372;2024-01-15T00:07:16;143256.22;;;-3.86;100.00
6938;BME280;40040;42.706;23.372;2024-01-15T00:09:42;143187.97;;;-4.14;100.00
6938;BME280;40040;42.706;23.372;2024-01-15T00:12:09;143175.81;;;-4.19;100.00
6938;BME280;40040;42.706;23.372;2024-01-15T00:14:36;143155.09;;;-4.27;100.00
6938;BME280;40040;42.706;23.372;2024-01-15T00:17:03;143186.75;;;-4.14;100.00
6938;BME280;40040;42.706;23.372;2024-01-15T00:19:30;143194.06;;;-4.11;100.00
6938;BME280;40040;42.706;23.372;2024-01-15T00:21:57;143140.47;;;-4.33;100.00
6938;BME280;40040;42.706;23.372;2024-01-15T00:24:25;143191.63;;;-4.12;100.00
6938;BME280;40040;42.706;23.372;2024-01-15T00:26:52;143189.22;;;-4.13;100.00
6938;BME280;40040;42.706;23.372;2024-01-15T00:29:20;143147.75;;;-4.30;100.00
6938;BME280;40040;42.706;23.372;2024-01-15T00:31:47;143167.28;;;-4.22;100.00
6938;BME280;40040;42.706;23.372;2024-01-15T00:34:14;143074.72;;;-4.61;100.00
6938;BME280;40040;42.706;23.372;2024-01-15T00:36:41;143203.81;;;-4.07;100.00
6938;BME280;40040;42.706;23.372;2024-01-15T00:39:08;143198.94;;;-4.09;100.00
6938;BME280;40040;42.706;23.372;2024-01-15T00:41:38;143203.81;;;-4.07;100.00
6938;BME280;40040;42.706;23.372;2024-01-15T00:44:05;143064.97;;;-4.65;100.00
6938;BME280;40040;42.706;23.372;2024-01-15T00:46:32;143099.06;;;-4.50;100.00
6938;BME280;40040;42.706;23.372;2024-01-15T00:48:59;143138.06;;;-4.34;100.00
6938;BME280;40040;42.706;23.372;2024-01-15T00:51:26;143184.34;;;-4.15;100.00
6938;BME280;40040;42.706;23.372;2024-01-15T00:53:52;143129.53;;;-4.38;100.00
6938;BME280;40040;42.706;23.372;2024-01-15T00:56:19;143163.63;;;-4.24;100.00
6938;BME280;40040;42.706;23.372;2024-01-15T00:58:47;143127.06;;;-4.39;100.00
6938;BME280;40040;42.706;23.372;2024-01-15T01:01:14;143177.00;;;-4.18;100.00
6938;BME280;40040;42.706;23.372;2024-01-15T01:03:41;143173.34;;;-4.20;100.00
6938;BME280;40040;42.706;23.372;2024-01-15T01:06:08;143169.69;;;-4.21;100.00
6938;BME280;40040;42.706;23.372;2024-01-15T01:08:35;143169.69;;;-4.21;100.00
6938;BME280;40040;42.706;23.372;2024-01-15T01:11:02;143144.13;;;-4.32;100.00
6938;BME280;40040;42.706;23.372;2024-01-15T01:13:29;143118.53;;;-4.42;100.00
6938;BME280;40040;42.706;23.372;2024-01-15T01:15:58;143099.06;;;-4.50;100.00
6938;BME280;40040;42.706;23.372;2024-01-15T01:18:25;143158.75;;;-4.26;100.00
6938;BME280;40040;42.706;23.372;2024-01-15T01:20:51;143123.41;;;-4.40;100.00
6938;BME280;40040;42.706;23.372;2024-01-15T01:23:19;143140.47;;;-4.33;100.00
6938;BME280;40040;42.706;23.372;2024-01-15T01:25:46;143140.47;;;-4.33;100.00
6938;BME280;40040;42.706;23.372;2024-01-15T01:28:13;143155.09;;;-4.27;100.00
6938;BME280;40040;42.706;23.372;2024-01-15T01:30:40;143105.13;;;-4.48;100.00
6938;BME280;40040;42.706;23.372;2024-01-15T01:33:09;143175.81;;;-4.19;100.00
6938;BME280;40040;42.706;23.372;2024-01-15T01:35:36;143121.00;;;-4.41;100.00
6938;BME280;40040;42.706;23.372;2024-01-15T01:38:04;143040.63;;;-4.75;100.00
6938;BME280;40040;42.706;23.372;2024-01-15T01:40:30;143133.16;;;-4.36;100.00
6938;BME280;40040;42.706;23.372;2024-01-15T01:42:57;143057.66;;;-4.68;100.00
6938;BME280;40040;42.706;23.372;2024-01-15T01:45:24;143106.34;;;-4.47;100.00
6938;BME280;40040;42.706;23.372;2024-01-15T01:47:51;143119.78;;;-4.42;100.00
6938;BME280;40040;42.706;23.372;2024-01-15T01:50:20;143103.94;;;-4.48;100.00
6938;BME280;40040;42.706;23.372;2024-01-15T01:52:47;143105.13;;;-4.48;100.00
6938;BME280;40040;42.706;23.372;2024-01-15T01:55:15;143023.56;;;-4.82;100.00
6938;BME280;40040;42.706;23.372;2024-01-15T01:57:42;143079.59;;;-4.58;100.00
6938;BME280;40040;42.706;23.372;2024-01-15T02:00:11;143080.78;;;-4.58;100.00
6938;BME280;40040;42.706;23.372;2024-01-15T02:02:38;143072.25;;;-4.62;100.00
6938;BME280;40040;42.706;23.372;2024-01-15T02:05:06;143054.03;;;-4.69;100.00
6938;BME280;40040;42.706;23.372;2024-01-15T02:07:35;143069.84;;;-4.63;100.00
6938;BME280;40040;42.706;23.372;2024-01-15T02:10:02;143028.47;;;-4.80;100.00
6938;BME280;40040;42.706;23.372;2024-01-15T02:12:30;143028.47;;;-4.80;100.00
6938;BME280;40040;42.706;23.372;2024-01-15T02:14:57;143040.63;;;-4.75;100.00
6938;BME280;40040;42.706;23.372;2024-01-15T02:17:23;143049.16;;;-4.71;100.00
6938;BME280;40040;42.706;23.372;2024-01-15T02:19:50;143057.66;;;-4.68;100.00
6938;BME280;40040;42.706;23.372;2024-01-15T02:22:17;143026.00;;;-4.81;100.00
6938;BME280;40040;42.706;23.372;2024-01-15T02:24:46;143050.31;;;-4.71;100.00
6938;BME280;40040;42.706;23.372;2024-01-15T02:27:12;143064.97;;;-4.65;100.00
6938;BME280;40040;42.706;23.372;2024-01-15T02:29:40;143052.78;;;-4.70;100.00
6938;BME280;40040;42.706;23.372;2024-01-15T02:32:08;143018.69;;;-4.84;100.00
6938;BME280;40040;42.706;23.372;2024-01-15T02:34:35;142994.38;;;-4.94;100.00
6938;BME280;40040;42.706;23.372;2024-01-15T02:37:02;142960.28;;;-5.08;100.00
6938;BME280;40040;42.706;23.372;2024-01-15T02:39:29;142943.22;;;-5.15;100.00
6938;BME280;40040;42.706;23.372;2024-01-15T02:41:57;143016.28;;;-4.85;100.00
6938;BME280;40040;42.706;23.372;2024-01-15T02:44:24;142991.91;;;-4.95;100.00
6938;BME280;40040;42.706;23.372;2024-01-15T02:46:51;142984.59;;;-4.98;100.00
6938;BME280;40040;42.706;23.372;2024-01-15T02:49:18;143005.31;;;-4.89;100.00
6938;BME280;40040;42.706;23.372;2024-01-15T02:51:45;143005.31;;;-4.89;100.00
6938;BME280;40040;42.706;23.372;2024-01-15T02:54:12;143004.06;;;-4.90;100.00
6938;BME280;40040;42.706;23.372;2024-01-15T02:56:39;143018.69;;;-4.84;100.00
6938;BME280;40040;42.706;23.372;2024-01-15T02:59:07;142944.47;;;-5.14;100.00
6938;BME280;40040;42.706;23.372;2024-01-15T03:01:34;142999.25;;;-4.92;100.00
6938;BME280;40040;42.706;23.372;2024-01-15T03:04:01;143038.16;;;-4.76;100.00
6938;BME280;40040;42.706;23.372;2024-01-15T03:06:28;143044.28;;;-4.73;100.00
6938;BME280;40040;42.706;23.372;2024-01-15T03:08:54;143069.84;;;-4.63;100.00
6938;BME280;40040;42.706;23.372;2024-01-15T03:11:21;143038.16;;;-4.76;100.00
6938;BME280;40040;42.706;23.372;2024-01-15T03:13:48;142918.91;;;-5.25;100.00
6938;BME280;40040;42.706;23.372;2024-01-15T03:16:16;143058.84;;;-4.67;100.00
6938;BME280;40040;42.706;23.372;2024-01-15T03:18:45;143064.97;;;-4.65;100.00
6938;BME280;40040;42.706;23.372;2024-01-15T03:21:12;143055.22;;;-4.69;100.00
6938;BME280;40040;42.706;23.372;2024-01-15T03:23:38;143027.22;;;-4.80;100.00
6938;BME280;40040;42.706;23.372;2024-01-15T03:26:05;143064.97;;;-4.65;100.00
6938;BME280;40040;42.706;23.372;2024-01-15T03:28:32;143108.81;;;-4.46;100.00
6938;BME280;40040;42.706;23.372;2024-01-15T03:30:59;143061.31;;;-4.66;100.00
6938;BME280;40040;42.706;23.372;2024-01-15T03:33:27;143084.44;;;-4.57;100.00
6938;BME280;40040;42.706;23.372;2024-01-15T03:35:54;143094.19;;;-4.52;100.00
6938;BME280;40040;42.706;23.372;2024-01-15T03:38:22;143071.06;;;-4.62;100.00
6938;BME280;40040;42.706;23.372;2024-01-15T03:40:49;143088.13;;;-4.55;100.00
6938;BME280;40040;42.706;23.372;2024-01-15T03:43:16;143097.84;;;-4.51;100.00
6938;BME280;40040;42.706;23.372;2024-01-15T03:45:42;143119.78;;;-4.42;100.00
6938;BME280;40040;42.706;23.372;2024-01-15T03:48:09;143103.94;;;-4.48;100.00
6938;BME280;40040;42.706;23.372;2024-01-15T03:50:37;143149.00;;;-4.30;100.00
6938;BME280;40040;42.706;23.372;2024-01-15T03:53:04;143167.28;;;-4.22;100.00
6938;BME280;40040;42.706;23.372;2024-01-15T03:55:31;143152.66;;;-4.28;100.00
6938;BME280;40040;42.706;23.372;2024-01-15T03:57:59;143155.09;;;-4.27;100.00
6938;BME280;40040;42.706;23.372;2024-01-15T04:00:26;143157.53;;;-4.26;100.00
6938;BME280;40040;42.706;23.372;2024-01-15T04:02:52;143145.34;;;-4.31;100.00
6938;BME280;40040;42.706;23.372;2024-01-15T04:05:19;143194.06;;;-4.11;100.00
6938;BME280;40040;42.706;23.372;2024-01-15T04:07:48;143194.06;;;-4.11;100.00
6938;BME280;40040;42.706;23.372;2024-01-15T04:10:14;143196.50;;;-4.10;100.00
6938;BME280;40040;42.706;23.372;2024-01-15T04:12:41;143241.56;;;-3.92;100.00
6938;BME280;40040;42.706;23.372;2024-01-15T04:15:08;143250.09;;;-3.88;100.00
6938;BME280;40040;42.706;23.372;2024-01-15T04:17:35;143235.50;;;-3.94;100.00
6938;BME280;40040;42.706;23.372;2024-01-15T04:20:02;143213.56;;;-4.03;100.00
6938;BME280;40040;42.706;23.372;2024-01-15T04:22:29;143181.88;;;-4.16;100.00
6938;BME280;40040;42.706;23.372;2024-01-15T04:24:57;143164.81;;;-4.23;100.00
6938;BME280;40040;42.706;23.372;2024-01-15T04:27:24;143151.47;;;-4.29;100.00
6938;BME280;40040;42.706;23.372;2024-01-15T04:29:51;143160.00;;;-4.25;100.00
6938;BME280;40040;42.706;23.372;2024-01-15T04:32:18;143125.88;;;-4.39;100.00
6938;BME280;40040;42.706;23.372;2024-01-15T04:34:45;143162.41;;;-4.24;100.00
6938;BME280;40040;42.706;23.372;2024-01-15T04:37:13;143118.53;;;-4.42;100.00
6938;BME280;40040;42.706;23.372;2024-01-15T04:39:40;143105.13;;;-4.48;100.00
6938;BME280;40040;42.706;23.372;2024-01-15T04:42:08;143100.31;;;-4.50;100.00
6938;BME280;40040;42.706;23.372;2024-01-15T04:44:35;143177.00;;;-4.18;100.00
6938;BME280;40040;42.706;23.372;2024-01-15T04:47:03;143183.09;;;-4.16;100.00
6938;BME280;40040;42.706;23.372;2024-01-15T04:49:29;143157.53;;;-4.26;100.00
6938;BME280;40040;42.706;23.372;2024-01-15T04:51:56;143180.69;;;-4.17;100.00
6938;BME280;40040;42.706;23.372;2024-01-15T04:54:23;143151.47;;;-4.29;100.00
6938;BME280;40040;42.706;23.372;2024-01-15T04:56:50;143155.09;;;-4.27;100.00
6938;BME280;40040;42.706;23.372;2024-01-15T04:59:18;143162.41;;;-4.24;100.00
6938;BME280;40040;42.706;23.372;2024-01-15T05:01:45;143180.69;;;-4.17;100.00
6938;BME280;40040;42.706;23.372;2024-01-15T05:04:13;143203.81;;;-4.07;100.00
6938;BME280;40040;42.706;23.372;2024-01-15T05:06:39;143200.16;;;-4.09;100.00
6938;BME280;40040;42.706;23.372;2024-01-15T05:09:06;143177.00;;;-4.18;100.00
6938;BME280;40040;42.706;23.372;2024-01-15T05:11:33;143216.00;;;-4.02;100.00
6938;BME280;40040;42.706;23.372;2024-01-15T05:14:00;143177.00;;;-4.18;100.00
6938;BME280;40040;42.706;23.372;2024-01-15T05:16:28;143213.56;;;-4.03;100.00
6938;BME280;40040;42.706;23.372;2024-01-15T05:18:55;143181.88;;;-4.16;100.00
6938;BME280;40040;42.706;23.372;2024-01-15T05:21:22;143128.28;;;-4.38;100.00
6938;BME280;40040;42.706;23.372;2024-01-15T05:23:49;143189.22;;;-4.13;100.00
6938;BME280;40040;42.706;23.372;2024-01-15T05:26:15;143134.41;;;-4.36;100.00
6938;BME280;40040;42.706;23.372;2024-01-15T05:28:42;143160.00;;;-4.25;100.00
6938;BME280;40040;42.706;23.372;2024-01-15T05:31:09;143103.94;;;-4.48;100.00
6938;BME280;40040;42.706;23.372;2024-01-15T05:33:38;143130.72;;;-4.37;100.00
6938;BME280;40040;42.706;23.372;2024-01-15T05:36:06;143123.41;;;-4.40;100.00
6938;BME280;40040;42.706;23.372;2024-01-15T05:38:33;143167.28;;;-4.22;100.00
6938;BME280;40040;42.706;23.372;2024-01-15T05:41:00;143180.69;;;-4.17;100.00
6938;BME280;40040;42.706;23.372;2024-01-15T05:43:27;143183.09;;;-4.16;100.00
6938;BME280;40040;42.706;23.372;2024-01-15T05:45:53;143166.06;;;-4.23;100.00
6938;BME280;40040;42.706;23.372;2024-01-15T05:48:20;143064.97;;;-4.65;100.00
6938;BME280;40040;42.706;23.372;2024-01-15T05:50:48;143179.47;;;-4.17;100.00
6938;BME280;40040;42.706;23.372;2024-01-15T05:53:16;143166.06;;;-4.23;100.00
6938;BME280;40040;42.706;23.372;2024-01-15T05:55:43;143102.72;;;-4.49;100.00
6938;BME280;40040;42.706;23.372;2024-01-15T05:58:10;143172.16;;;-4.20;100.00
6938;BME280;40040;42.706;23.372;2024-01-15T06:00:37;143190.41;;;-4.13;100.00
6938;BME280;40040;42.706;23.372;2024-01-15T06:03:04;143134.41;;;-4.36;100.00
6938;BME280;40040;42.706;23.372;2024-01-15T06:05:31;143189.22;;;-4.13;100.00
6938;BME280;40040;42.706;23.372;2024-01-15T06:07:59;143203.81;;;-4.07;100.00
6938;BME280;40040;42.706;23.372;2024-01-15T06:10:26;143190.41;;;-4.13;100.00
6938;BME280;40040;42.706;23.372;2024-01-15T06:12:53;143233.06;;;-3.95;100.00
6938;BME280;40040;42.706;23.372;2024-01-15T06:15:20;143252.56;;;-3.87;100.00
6938;BME280;40040;42.706;23.372;2024-01-15T06:17:46;143259.88;;;-3.84;100.00
6938;BME280;40040;42.706;23.372;2024-01-15T06:20:13;143235.50;;;-3.94;100.00
6938;BME280;40040;42.706;23.372;2024-01-15T06:22:40;143160.00;;;-4.25;100.00
6938;BME280;40040;42.706;23.372;2024-01-15T06:25:08;143184.34;;;-4.15;100.00
6938;BME280;40040;42.706;23.372;2024-01-15T06:27:35;143240.34;;;-3.92;100.00
6938;BME280;40040;42.706;23.372;2024-01-15T06:30:03;143264.75;;;-3.82;100.00
6938;BME280;40040;42.706;23.372;2024-01-15T06:32:30;143270.81;;;-3.80;100.00
6938;BME280;40040;42.706;23.372;2024-01-15T06:34:56;143251.34;;;-3.88;100.00
6938;BME280;40040;42.706;23.372;2024-01-15T06:37:23;143268.41;;;-3.81;100.00
6938;BME280;40040;42.706;23.372;2024-01-15T06:39:50;143209.94;;;-4.05;100.00
6938;BME280;40040;42.706;23.372;2024-01-15T06:42:18;143216.00;;;-4.02;100.00
6938;BME280;40040;42.706;23.372;2024-01-15T06:44:47;143359.81;;;-3.43;100.00
6938;BME280;40040;42.706;23.372;2024-01-15T06:47:14;143376.88;;;-3.36;100.00
6938;BME280;40040;42.706;23.372;2024-01-15T06:49:43;143412.25;;;-3.21;100.00
6938;BME280;40040;42.706;23.372;2024-01-15T06:52:09;143468.34;;;-2.98;100.00
6938;BME280;40040;42.706;23.372;2024-01-15T06:54:36;143503.69;;;-2.84;100.00
6938;BME280;40040;42.706;23.372;2024-01-15T06:57:04;143502.50;;;-2.84;100.00
6938;BME280;40040;42.706;23.372;2024-01-15T06:59:33;143537.84;;;-2.70;100.00
6938;BME280;40040;42.706;23.372;2024-01-15T07:02:01;143552.50;;;-2.64;100.00
6938;BME280;40040;42.706;23.372;2024-01-15T07:04:28;143597.63;;;-2.45;100.00
6938;BME280;40040;42.706;23.372;2024-01-15T07:06:55;143557.41;;;-2.62;100.00
6938;BME280;40040;42.706;23.372;2024-01-15T07:09:21;143642.78;;;-2.27;100.00
6938;BME280;40040;42.706;23.372;2024-01-15T07:11:48;143645.25;;;-2.25;100.00
6938;BME280;40040;42.706;23.372;2024-01-15T07:14:16;143657.44;;;-2.20;100.00
6938;BME280;40040;42.706;23.372;2024-01-15T07:16:44;143680.59;;;-2.11;100.00
6938;BME280;40040;42.706;23.372;2024-01-15T07:19:11;143651.31;;;-2.23;100.00
6938;BME280;40040;42.706;23.372;2024-01-15T07:21:38;143655.03;;;-2.21;100.00
6938;BME280;40040;42.706;23.372;2024-01-15T07:24:07;143702.59;;;-2.02;100.00
6938;BME280;40040;42.706;23.372;2024-01-15T07:26:34;143626.91;;;-2.33;100.00
6938;BME280;40040;42.706;23.372;2024-01-15T07:29:01;143689.16;;;-2.07;100.00
6938;BME280;40040;42.706;23.372;2024-01-15T07:31:28;143596.41;;;-2.46;100.00
6938;BME280;40040;42.706;23.372;2024-01-15T07:33:57;143747.78;;;-1.83;100.00
6938;BME280;40040;42.706;23.372;2024-01-15T07:36:24;143769.72;;;-1.74;100.00
6938;BME280;40040;42.706;23.372;2024-01-15T07:38:50;143777.09;;;-1.71;100.00
6938;BME280;40040;42.706;23.372;2024-01-15T07:41:17;143786.81;;;-1.67;100.00
6938;BME280;40040;42.706;23.372;2024-01-15T07:43:44;143661.09;;;-2.19;100.00
6938;BME280;40040;42.706;23.372;2024-01-15T07:46:11;143788.06;;;-1.67;100.00
6938;BME280;40040;42.706;23.372;2024-01-15T07:48:38;143706.25;;;-2.00;100.00
6938;BME280;40040;42.706;23.372;2024-01-15T07:51:06;143830.78;;;-1.49;100.00
6938;BME280;40040;42.706;23.372;2024-01-15T07:53:33;143753.84;;;-1.81;100.00
6938;BME280;40040;42.706;23.372;2024-01-15T07:56:00;143836.91;;;-1.47;100.00
6938;BME280;40040;42.706;23.372;2024-01-15T07:58:27;143772.19;;;-1.73;100.00
6938;BME280;40040;42.706;23.372;2024-01-15T08:00:53;143845.47;;;-1.43;100.00
6938;BME280;40040;42.706;23.372;2024-01-15T08:03:20;143887.00;;;-1.26;100.00
6938;BME280;40040;42.706;23.372;2024-01-15T08:05:47;143890.66;;;-1.25;100.00
6938;BME280;40040;42.706;23.372;2024-01-15T08:08:19;143752.63;;;-1.81;100.00
6938;BME280;40040;42.706;23.372;2024-01-15T08:10:46;143841.75;;;-1.45;100.00
6938;BME280;40040;42.706;23.372;2024-01-15T08:13:13;143814.94;;;-1.56;100.00
6938;BME280;40040;42.706;23.372;2024-01-15T08:15:40;143789.28;;;-1.66;100.00
6938;BME280;40040;42.706;23.372;2024-01-15T08:18:07;143852.78;;;-1.40;100.00
6938;BME280;40040;42.706;23.372;2024-01-15T08:20:34;143844.22;;;-1.44;100.00
6938;BME280;40040;42.706;23.372;2024-01-15T08:23:01;143890.66;;;-1.25;100.00
6938;BME280;40040;42.706;23.372;2024-01-15T08:25:29;143905.28;;;-1.19;100.00
6938;BME280;40040;42.706;23.372;2024-01-15T08:27:56;143865.00;;;-1.35;100.00
6938;BME280;40040;42.706;23.372;2024-01-15T08:30:23;143956.59;;;-0.97;100.00
6938;BME280;40040;42.706;23.372;2024-01-15T08:32:53;143981.06;;;-0.87;100.00
6938;BME280;40040;42.706;23.372;2024-01-15T08:35:20;144038.47;;;-0.64;100.00
6938;BME280;40040;42.706;23.372;2024-01-15T08:37:48;144146.06;;;-0.20;100.00
6938;BME280;40040;42.706;23.372;2024-01-15T08:40:15;144212.06;;;0.08;100.00
6938;BME280;40040;42.706;23.372;2024-01-15T08:42:43;144191.28;;;-0.01;100.00
6938;BME280;40040;42.706;23.372;2024-01-15T08:45:11;144312.41;;;0.49;100.00
6938;BME280;40040;42.706;23.372;2024-01-15T08:47:38;144256.13;;;0.26;98.66
6938;BME280;40040;42.706;23.372;2024-01-15T08:50:06;144302.59;;;0.45;97.27
6938;BME280;40040;42.706;23.372;2024-01-15T08:52:35;144368.66;;;0.72;97.15
6938;BME280;40040;42.706;23.372;2024-01-15T08:55:03;144376.03;;;0.75;98.10
6938;BME280;40040;42.706;23.372;2024-01-15T08:57:31;144354.00;;;0.66;99.07
6938;BME280;40040;42.706;23.372;2024-01-15T08:59:59;144384.59;;;0.78;100.00
6938;BME280;40040;42.706;23.372;2024-01-15T09:02:26;144423.72;;;0.94;100.00
6938;BME280;40040;42.706;23.372;2024-01-15T09:04:52;144456.81;;;1.08;99.87
6938;BME280;40040;42.706;23.372;2024-01-15T09:07:19;144460.47;;;1.09;99.30
6938;BME280;40040;42.706;23.372;2024-01-15T09:09:46;144434.75;;;0.99;98.31
6938;BME280;40040;42.706;23.372;2024-01-15T09:12:13;144488.59;;;1.21;98.90
6938;BME280;40040;42.706;23.372;2024-01-15T09:14:41;144520.47;;;1.34;98.01
6938;BME280;40040;42.706;23.372;2024-01-15T09:17:09;144570.66;;;1.55;95.83
6938;BME280;40040;42.706;23.372;2024-01-15T09:19:36;144593.91;;;1.64;94.22
6938;BME280;40040;42.706;23.372;2024-01-15T09:22:04;144623.28;;;1.76;94.08
6938;BME280;40040;42.706;23.372;2024-01-15T09:24:31;144661.25;;;1.92;94.07
6938;BME280;40040;42.706;23.372;2024-01-15T09:26:58;144675.97;;;1.98;93.17
6938;BME280;40040;42.706;23.372;2024-01-15T09:29:25;144733.53;;;2.21;90.40
6938;BME280;40040;42.706;23.372;2024-01-15T09:31:52;144765.41;;;2.35;88.63
6938;BME280;40040;42.706;23.372;2024-01-15T09:34:20;144769.09;;;2.36;88.43
6938;BME280;40040;42.706;23.372;2024-01-15T09:36:48;144750.69;;;2.28;88.03
6938;BME280;40040;42.706;23.372;2024-01-15T09:39:15;144671.06;;;1.96;88.14
6938;BME280;40040;42.706;23.372;2024-01-15T09:41:42;144761.75;;;2.33;87.80
6938;BME280;40040;42.706;23.372;2024-01-15T09:44:10;144794.81;;;2.47;88.81
6938;BME280;40040;42.706;23.372;2024-01-15T09:46:38;144897.78;;;2.89;89.23
6938;BME280;40040;42.706;23.372;2024-01-15T09:49:05;144907.63;;;2.93;85.79
6938;BME280;40040;42.706;23.372;2024-01-15T09:51:34;144873.28;;;2.79;86.08
6938;BME280;40040;42.706;23.372;2024-01-15T09:54:02;144825.47;;;2.59;86.42
6938;BME280;40040;42.706;23.372;2024-01-15T09:56:30;144848.72;;;2.69;86.22
6938;BME280;40040;42.706;23.372;2024-01-15T09:58:57;144851.22;;;2.70;86.07
6938;BME280;40040;42.706;23.372;2024-01-15T10:01:24;144849.97;;;2.69;86.02
6938;BME280;40040;42.706;23.372;2024-01-15T10:03:51;144830.38;;;2.61;86.79
6938;BME280;40040;42.706;23.372;2024-01-15T10:06:21;144867.13;;;2.76;85.68
6938;BME280;40040;42.706;23.372;2024-01-15T10:08:51;144846.31;;;2.68;88.17
6938;BME280;40040;42.706;23.372;2024-01-15T10:11:17;144820.56;;;2.57;89.35
6938;BME280;40040;42.706;23.372;2024-01-15T10:13:44;144650.25;;;1.87;90.26
6938;BME280;40040;42.706;23.372;2024-01-15T10:16:11;144656.38;;;1.90;91.62
6938;BME280;40040;42.706;23.372;2024-01-15T10:18:38;144726.19;;;2.18;92.06
6938;BME280;40040;42.706;23.372;2024-01-15T10:21:06;144707.84;;;2.11;91.81
6938;BME280;40040;42.706;23.372;2024-01-15T10:23:33;144696.78;;;2.06;92.31
6938;BME280;40040;42.706;23.372;2024-01-15T10:26:03;144709.03;;;2.11;92.36
6938;BME280;40040;42.706;23.372;2024-01-15T10:28:30;144711.50;;;2.12;90.48
6938;BME280;40040;42.706;23.372;2024-01-15T10:30:58;144713.94;;;2.13;92.08
6938;BME280;40040;42.706;23.372;2024-01-15T10:33:26;144738.44;;;2.23;92.39
6938;BME280;40040;42.706;23.372;2024-01-15T10:35:53;144699.28;;;2.07;92.78
6938;BME280;40040;42.706;23.372;2024-01-15T10:38:20;144787.47;;;2.44;91.33
6938;BME280;40040;42.706;23.372;2024-01-15T10:40:51;144808.31;;;2.52;91.31
6938;BME280;40040;42.706;23.372;2024-01-15T10:43:19;144837.72;;;2.64;90.59
6938;BME280;40040;42.706;23.372;2024-01-15T10:45:46;144853.66;;;2.71;90.48
6938;BME280;40040;42.706;23.372;2024-01-15T10:48:13;144874.47;;;2.79;90.82
6938;BME280;40040;42.706;23.372;2024-01-15T10:50:40;144902.69;;;2.91;90.55
6938;BME280;40040;42.706;23.372;2024-01-15T10:53:08;144892.88;;;2.87;91.16
6938;BME280;40040;42.706;23.372;2024-01-15T10:55:35;144900.22;;;2.90;91.09
6938;BME280;40040;42.706;23.372;2024-01-15T10:58:05;144932.13;;;3.03;89.84
6938;BME280;40040;42.706;23.372;2024-01-15T11:00:35;144908.81;;;2.93;90.77
6938;BME280;40040;42.706;23.372;2024-01-15T11:03:03;144937.03;;;3.05;91.79
6938;BME280;40040;42.706;23.372;2024-01-15T11:05:33;144983.63;;;3.24;91.66
6938;BME280;40040;42.706;23.372;2024-01-15T11:08:01;144917.38;;;2.97;90.47
6938;BME280;40040;42.706;23.372;2024-01-15T11:10:44;144927.22;;;3.01;87.92
6938;BME280;40040;42.706;23.372;2024-01-15T11:13:19;145008.13;;;3.34;88.16
6938;BME280;40040;42.706;23.372;2024-01-15T11:15:58;145047.41;;;3.50;86.86
6938;BME280;40040;42.706;23.372;2024-01-15T11:18:27;145056.00;;;3.54;86.29
6938;BME280;40040;42.706;23.372;2024-01-15T11:21:22;145073.16;;;3.61;84.90
6938;BME280;40040;42.706;23.372;2024-01-15T11:23:52;145127.13;;;3.83;85.41
6938;BME280;40040;42.706;23.372;2024-01-15T11:26:33;145155.34;;;3.94;84.20
6938;BME280;40040;42.706;23.372;2024-01-15T11:29:01;145188.50;;;4.08;84.61
6938;BME280;40040;42.706;23.372;2024-01-15T11:31:57;145238.81;;;4.28;84.11
6938;BME280;40040;42.706;23.372;2024-01-15T11:34:51;145292.81;;;4.50;83.65
6938;BME280;40040;42.706;23.372;2024-01-15T11:37:19;145367.72;;;4.81;79.85
6938;BME280;40040;42.706;23.372;2024-01-15T11:39:47;145400.88;;;4.95;80.24
6938;BME280;40040;42.706;23.372;2024-01-15T11:42:14;145421.75;;;5.03;79.75
6938;BME280;40040;42.706;23.372;2024-01-15T11:44:41;145442.63;;;5.12;78.76
6938;BME280;40040;42.706;23.372;2024-01-15T11:47:10;145467.19;;;5.22;78.21
6938;BME280;40040;42.706;23.372;2024-01-15T11:50:08;145398.41;;;4.94;78.14
6938;BME280;40040;42.706;23.372;2024-01-15T11:52:38;145457.34;;;5.18;77.36
6938;BME280;40040;42.706;23.372;2024-01-15T11:55:11;145496.66;;;5.34;76.50
6938;BME280;40040;42.706;23.372;2024-01-15T11:57:46;145449.97;;;5.15;76.38
6938;BME280;40040;42.706;23.372;2024-01-15T12:00:14;145368.94;;;4.82;77.56
6938;BME280;40040;42.706;23.372;2024-01-15T12:02:43;145256.00;;;4.35;78.57
6938;BME280;40040;42.706;23.372;2024-01-15T12:05:11;145311.25;;;4.58;78.98
6938;BME280;40040;42.706;23.372;2024-01-15T12:07:38;145312.44;;;4.58;79.93
6938;BME280;40040;42.706;23.372;2024-01-15T12:10:10;145307.56;;;4.56;80.15
6938;BME280;40040;42.706;23.372;2024-01-15T12:12:50;145359.13;;;4.78;79.50
6938;BME280;40040;42.706;23.372;2024-01-15T12:15:20;145359.13;;;4.78;79.48
6938;BME280;40040;42.706;23.372;2024-01-15T12:17:49;145364.00;;;4.80;79.61
6938;BME280;40040;42.706;23.372;2024-01-15T12:20:17;145395.97;;;4.93;78.19
6938;BME280;40040;42.706;23.372;2024-01-15T12:22:44;145366.50;;;4.81;79.03
6938;BME280;40040;42.706;23.372;2024-01-15T12:25:11;145367.72;;;4.81;79.32
6938;BME280;40040;42.706;23.372;2024-01-15T12:27:38;145368.94;;;4.82;78.60
6938;BME280;40040;42.706;23.372;2024-01-15T12:30:06;145349.28;;;4.74;78.17
6938;BME280;40040;42.706;23.372;2024-01-15T12:32:34;145362.81;;;4.79;79.76
6938;BME280;40040;42.706;23.372;2024-01-15T12:35:03;145290.38;;;4.49;79.93
6938;BME280;40040;42.706;23.372;2024-01-15T12:37:30;145332.09;;;4.67;80.25
6938;BME280;40040;42.706;23.372;2024-01-15T12:39:58;145316.16;;;4.60;80.82
6938;BME280;40040;42.706;23.372;2024-01-15T12:42:25;145292.81;;;4.50;81.67
6938;BME280;40040;42.706;23.372;2024-01-15T12:44:55;145278.09;;;4.44;81.27
6938;BME280;40040;42.706;23.372;2024-01-15T12:47:22;145332.09;;;4.67;80.41
6938;BME280;40040;42.706;23.372;2024-01-15T12:49:51;145356.66;;;4.77;80.22